sensor_id;sensor_type;location;lat;lon;timestamp;P1;durP1;ratioP1;P2;durP2;ratioP2
4424;SDS011;2225;53.568;13.266;2023-11-21T00:00:01;16.40;;;9.93;;
4424;SDS011;2225;53.568;13.266;2023-11-21T00:02:38;18.50;;;10.53;;
4424;SDS011;2225;53.568;13.266;2023-11-21T00:05:07;29.30;;;9.57;;
4424;SDS011;2225;53.568;13.266;2023-11-21T00:07:40;15.27;;;9.70;;
4424;SDS011;2225;53.568;13.266;2023-11-21T00:10:08;16.13;;;9.83;;
4424;SDS011;2225;53.568;13.266;2023-11-21T00:12:37;16.83;;;9.83;;
4424;SDS011;2225;53.568;13.266;2023-11-21T00:15:04;20.27;;;10.77;;
4424;SDS011;2225;53.568;13.266;2023-11-21T00:17:32;17.10;;;10.13;;
4424;SDS011;2225;53.568;13.266;2023-11-21T00:19:59;16.83;;;9.73;;
4424;SDS011;2225;53.568;13.266;2023-11-21T00:22:25;15.03;;;9.07;;
4424;SDS011;2225;53.568;13.266;2023-11-21T00:24:52;18.60;;;10.50;;
4424;SDS011;2225;53.568;13.266;2023-11-21T00:27:19;20.63;;;10.63;;
4424;SDS011;2225;53.568;13.266;2023-11-21T00:29:46;19.93;;;9.70;;
4424;SDS011;2225;53.568;13.266;2023-11-21T00:32:13;18.23;;;9.60;;
4424;SDS011;2225;53.568;13.266;2023-11-21T00:34:40;17.80;;;9.97;;
4424;SDS011;2225;53.568;13.266;2023-11-21T00:37:08;18.17;;;10.13;;
4424;SDS011;2225;53.568;13.266;2023-11-21T00:39:35;16.33;;;8.67;;
4424;SDS011;2225;53.568;13.266;2023-11-21T00:42:02;15.73;;;9.17;;
4424;SDS011;2225;53.568;13.266;2023-11-21T00:44:31;19.43;;;10.30;;
4424;SDS011;2225;53.568;13.266;2023-11-21T00:46:58;17.73;;;9.43;;
4424;SDS011;2225;53.568;13.266;2023-11-21T00:49:25;22.50;;;10.57;;
4424;SDS011;2225;53.568;13.266;2023-11-21T00:51:52;15.07;;;9.07;;
4424;SDS011;2225;53.568;13.266;2023-11-21T00:54:18;17.87;;;10.10;;
4424;SDS011;2225;53.568;13.266;2023-11-21T00:56:45;15.17;;;8.07;;
4424;SDS011;2225;53.568;13.266;2023-11-21T00:59:14;19.03;;;9.90;;
4424;SDS011;2225;53.568;13.266;2023-11-21T01:01:41;17.97;;;9.50;;
4424;SDS011;2225;53.568;13.266;2023-11-21T01:04:08;15.63;;;9.53;;
4424;SDS011;2225;53.568;13.266;2023-11-21T01:06:35;15.83;;;8.80;;
4424;SDS011;2225;53.568;13.266;2023-11-21T01:09:02;14.23;;;8.00;;
4424;SDS011;2225;53.568;13.266;2023-11-21T01:11:34;15.27;;;8.83;;
4424;SDS011;2225;53.568;13.266;2023-11-21T01:14:03;20.50;;;9.63;;
4424;SDS011;2225;53.568;13.266;2023-11-21T01:16:31;17.30;;;8.60;;
4424;SDS011;2225;53.568;13.266;2023-11-21T01:18:59;14.70;;;8.47;;
4424;SDS011;2225;53.568;13.266;2023-11-21T01:21:26;16.27;;;8.37;;
4424;SDS011;2225;53.568;13.266;2023-11-21T01:23:54;15.40;;;8.50;;
4424;SDS011;2225;53.568;13.266;2023-11-21T01:26:21;13.47;;;8.20;;
4424;SDS011;2225;53.568;13.266;2023-11-21T01:28:48;14.00;;;8.87;;
4424;SDS011;2225;53.568;13.266;2023-11-21T01:31:15;12.60;;;7.87;;
4424;SDS011;2225;53.568;13.266;2023-11-21T01:33:43;16.07;;;9.57;;
4424;SDS011;2225;53.568;13.266;2023-11-21T01:36:11;12.87;;;8.47;;
4424;SDS011;2225;53.568;13.266;2023-11-21T01:38:38;15.20;;;9.10;;
4424;SDS011;2225;53.568;13.266;2023-11-21T01:41:05;15.83;;;8.53;;
4424;SDS011;2225;53.568;13.266;2023-11-21T01:43:33;17.47;;;9.37;;
4424;SDS011;2225;53.568;13.266;2023-11-21T01:46:00;18.13;;;9.17;;
4424;SDS011;2225;53.568;13.266;2023-11-21T01:48:28;14.93;;;9.27;;
4424;SDS011;2225;53.568;13.266;2023-11-21T01:50:55;14.80;;;8.43;;
4424;SDS011;2225;53.568;13.266;2023-11-21T01:53:23;14.83;;;9.10;;
4424;SDS011;2225;53.568;13.266;2023-11-21T01:55:52;13.80;;;7.97;;
4424;SDS011;2225;53.568;13.266;2023-11-21T01:58:25;13.77;;;9.07;;
4424;SDS011;2225;53.568;13.266;2023-11-21T02:00:52;15.27;;;7.83;;
4424;SDS011;2225;53.568;13.266;2023-11-21T02:03:21;14.97;;;8.47;;
4424;SDS011;2225;53.568;13.266;2023-11-21T02:05:48;14.10;;;8.43;;
4424;SDS011;2225;53.568;13.266;2023-11-21T02:08:15;19.63;;;10.00;;
4424;SDS011;2225;53.568;13.266;2023-11-21T02:10:42;15.33;;;9.37;;
4424;SDS011;2225;53.568;13.266;2023-11-21T02:13:09;15.50;;;8.30;;
4424;SDS011;2225;53.568;13.266;2023-11-21T02:15:37;17.23;;;8.77;;
4424;SDS011;2225;53.568;13.266;2023-11-21T02:18:04;14.40;;;9.00;;
4424;SDS011;2225;53.568;13.266;2023-11-21T02:20:32;16.60;;;9.40;;
4424;SDS011;2225;53.568;13.266;2023-11-21T02:23:02;15.50;;;8.70;;
4424;SDS011;2225;53.568;13.266;2023-11-21T02:25:31;14.77;;;8.77;;
4424;SDS011;2225;53.568;13.266;2023-11-21T02:28:01;13.10;;;7.93;;
4424;SDS011;2225;53.568;13.266;2023-11-21T02:30:30;15.00;;;8.43;;
4424;SDS011;2225;53.568;13.266;2023-11-21T02:32:58;13.40;;;8.90;;
4424;SDS011;2225;53.568;13.266;2023-11-21T02:35:27;14.23;;;7.90;;
4424;SDS011;2225;53.568;13.266;2023-11-21T02:37:54;13.20;;;8.00;;
4424;SDS011;2225;53.568;13.266;2023-11-21T02:40:21;16.63;;;8.97;;
4424;SDS011;2225;53.568;13.266;2023-11-21T02:42:50;14.53;;;7.97;;
4424;SDS011;2225;53.568;13.266;2023-11-21T02:45:19;14.43;;;8.90;;
4424;SDS011;2225;53.568;13.266;2023-11-21T02:47:50;16.27;;;9.00;;
4424;SDS011;2225;53.568;13.266;2023-11-21T02:50:19;15.10;;;8.90;;
4424;SDS011;2225;53.568;13.266;2023-11-21T02:52:46;18.53;;;8.87;;
4424;SDS011;2225;53.568;13.266;2023-11-21T02:55:13;17.60;;;8.43;;
4424;SDS011;2225;53.568;13.266;2023-11-21T02:57:41;15.70;;;8.23;;
4424;SDS011;2225;53.568;13.266;2023-11-21T03:00:08;14.40;;;7.80;;
4424;SDS011;2225;53.568;13.266;2023-11-21T03:02:40;14.83;;;8.33;;
4424;SDS011;2225;53.568;13.266;2023-11-21T03:05:07;13.73;;;7.93;;
4424;SDS011;2225;53.568;13.266;2023-11-21T03:07:38;15.60;;;8.73;;
4424;SDS011;2225;53.568;13.266;2023-11-21T03:10:07;11.97;;;7.40;;
4424;SDS011;2225;53.568;13.266;2023-11-21T03:12:38;15.23;;;7.90;;
4424;SDS011;2225;53.568;13.266;2023-11-21T03:15:06;19.23;;;8.90;;
4424;SDS011;2225;53.568;13.266;2023-11-21T03:17:34;15.40;;;8.00;;
4424;SDS011;2225;53.568;13.266;2023-11-21T03:20:02;13.53;;;7.40;;
4424;SDS011;2225;53.568;13.266;2023-11-21T03:22:30;12.27;;;6.87;;
4424;SDS011;2225;53.568;13.266;2023-11-21T03:24:57;13.23;;;7.50;;
4424;SDS011;2225;53.568;13.266;2023-11-21T03:27:25;12.23;;;6.57;;
4424;SDS011;2225;53.568;13.266;2023-11-21T03:29:52;13.23;;;6.80;;
4424;SDS011;2225;53.568;13.266;2023-11-21T03:32:21;11.23;;;6.57;;
4424;SDS011;2225;53.568;13.266;2023-11-21T03:34:54;15.40;;;7.33;;
4424;SDS011;2225;53.568;13.266;2023-11-21T03:37:23;11.40;;;6.40;;
4424;SDS011;2225;53.568;13.266;2023-11-21T03:39:55;11.10;;;6.00;;
4424;SDS011;2225;53.568;13.266;2023-11-21T03:42:23;11.03;;;6.63;;
4424;SDS011;2225;53.568;13.266;2023-11-21T03:44:53;13.43;;;6.87;;
4424;SDS011;2225;53.568;13.266;2023-11-21T03:47:20;14.63;;;6.83;;
4424;SDS011;2225;53.568;13.266;2023-11-21T03:49:47;16.83;;;7.60;;
4424;SDS011;2225;53.568;13.266;2023-11-21T03:52:15;15.63;;;8.30;;
4424;SDS011;2225;53.568;13.266;2023-11-21T03:54:42;13.60;;;7.90;;
4424;SDS011;2225;53.568;13.266;2023-11-21T03:57:09;13.80;;;6.97;;
4424;SDS011;2225;53.568;13.266;2023-11-21T03:59:40;13.97;;;7.60;;
4424;SDS011;2225;53.568;13.266;2023-11-21T04:02:11;11.37;;;6.20;;
4424;SDS011;2225;53.568;13.266;2023-11-21T04:04:38;19.50;;;7.50;;
4424;SDS011;2225;53.568;13.266;2023-11-21T04:07:05;12.33;;;7.30;;
4424;SDS011;2225;53.568;13.266;2023-11-21T04:09:32;14.27;;;8.57;;
4424;SDS011;2225;53.568;13.266;2023-11-21T04:11:59;15.00;;;6.97;;
4424;SDS011;2225;53.568;13.266;2023-11-21T04:14:26;12.17;;;6.77;;
4424;SDS011;2225;53.568;13.266;2023-11-21T04:16:53;14.17;;;7.90;;
4424;SDS011;2225;53.568;13.266;2023-11-21T04:19:20;13.27;;;6.40;;
4424;SDS011;2225;53.568;13.266;2023-11-21T04:21:48;13.33;;;7.20;;
4424;SDS011;2225;53.568;13.266;2023-11-21T04:24:15;18.43;;;7.83;;
4424;SDS011;2225;53.568;13.266;2023-11-21T04:26:43;11.60;;;6.63;;
4424;SDS011;2225;53.568;13.266;2023-11-21T04:29:10;11.93;;;6.40;;
4424;SDS011;2225;53.568;13.266;2023-11-21T04:31:37;11.53;;;6.60;;
4424;SDS011;2225;53.568;13.266;2023-11-21T04:34:04;13.80;;;6.90;;
4424;SDS011;2225;53.568;13.266;2023-11-21T04:36:31;11.77;;;7.07;;
4424;SDS011;2225;53.568;13.266;2023-11-21T04:38:58;19.23;;;8.20;;
4424;SDS011;2225;53.568;13.266;2023-11-21T04:41:25;13.20;;;6.90;;
4424;SDS011;2225;53.568;13.266;2023-11-21T04:43:52;13.20;;;7.27;;
4424;SDS011;2225;53.568;13.266;2023-11-21T04:46:19;11.47;;;6.57;;
4424;SDS011;2225;53.568;13.266;2023-11-21T04:48:46;15.60;;;7.00;;
4424;SDS011;2225;53.568;13.266;2023-11-21T04:51:13;13.97;;;7.30;;
4424;SDS011;2225;53.568;13.266;2023-11-21T04:53:40;12.70;;;7.40;;
4424;SDS011;2225;53.568;13.266;2023-11-21T04:56:07;11.50;;;7.00;;
4424;SDS011;2225;53.568;13.266;2023-11-21T04:58:34;13.07;;;7.13;;
4424;SDS011;2225;53.568;13.266;2023-11-21T05:01:01;13.33;;;7.87;;
4424;SDS011;2225;53.568;13.266;2023-11-21T05:03:33;13.93;;;7.87;;
4424;SDS011;2225;53.568;13.266;2023-11-21T05:06:01;13.27;;;7.07;;
4424;SDS011;2225;53.568;13.266;2023-11-21T05:08:28;14.17;;;7.93;;
4424;SDS011;2225;53.568;13.266;2023-11-21T05:10:55;14.97;;;7.73;;
4424;SDS011;2225;53.568;13.266;2023-11-21T05:13:22;13.83;;;8.30;;
4424;SDS011;2225;53.568;13.266;2023-11-21T05:15:56;16.10;;;9.10;;
4424;SDS011;2225;53.568;13.266;2023-11-21T05:18:24;13.67;;;8.20;;
4424;SDS011;2225;53.568;13.266;2023-11-21T05:20:53;16.50;;;8.17;;
4424;SDS011;2225;53.568;13.266;2023-11-21T05:23:20;15.73;;;8.70;;
4424;SDS011;2225;53.568;13.266;2023-11-21T05:25:47;13.10;;;8.30;;
4424;SDS011;2225;53.568;13.266;2023-11-21T05:28:14;13.63;;;7.73;;
4424;SDS011;2225;53.568;13.266;2023-11-21T05:30:41;17.97;;;8.07;;
4424;SDS011;2225;53.568;13.266;2023-11-21T05:33:08;17.47;;;8.17;;
4424;SDS011;2225;53.568;13.266;2023-11-21T05:35:36;16.63;;;8.43;;
4424;SDS011;2225;53.568;13.266;2023-11-21T05:38:02;18.10;;;9.20;;
4424;SDS011;2225;53.568;13.266;2023-11-21T05:40:30;20.50;;;9.00;;
4424;SDS011;2225;53.568;13.266;2023-11-21T05:42:56;17.83;;;9.20;;
4424;SDS011;2225;53.568;13.266;2023-11-21T05:45:23;16.57;;;8.87;;
4424;SDS011;2225;53.568;13.266;2023-11-21T05:47:50;18.90;;;9.03;;
4424;SDS011;2225;53.568;13.266;2023-11-21T05:50:17;17.97;;;9.17;;
4424;SDS011;2225;53.568;13.266;2023-11-21T05:52:45;15.80;;;9.03;;
4424;SDS011;2225;53.568;13.266;2023-11-21T05:55:13;15.60;;;8.73;;
4424;SDS011;2225;53.568;13.266;2023-11-21T05:57:41;17.40;;;9.57;;
4424;SDS011;2225;53.568;13.266;2023-11-21T06:00:11;16.80;;;9.60;;
4424;SDS011;2225;53.568;13.266;2023-11-21T06:02:49;18.80;;;10.17;;
4424;SDS011;2225;53.568;13.266;2023-11-21T06:05:19;17.27;;;9.57;;
4424;SDS011;2225;53.568;13.266;2023-11-21T06:07:52;18.33;;;10.07;;
4424;SDS011;2225;53.568;13.266;2023-11-21T06:10:21;17.40;;;9.27;;
4424;SDS011;2225;53.568;13.266;2023-11-21T06:12:51;21.37;;;10.20;;
4424;SDS011;2225;53.568;13.266;2023-11-21T06:15:18;15.63;;;8.27;;
4424;SDS011;2225;53.568;13.266;2023-11-21T06:17:47;16.73;;;9.47;;
4424;SDS011;2225;53.568;13.266;2023-11-21T06:20:18;18.73;;;10.43;;
4424;SDS011;2225;53.568;13.266;2023-11-21T06:22:47;15.40;;;9.40;;
4424;SDS011;2225;53.568;13.266;2023-11-21T06:25:16;17.07;;;8.90;;
4424;SDS011;2225;53.568;13.266;2023-11-21T06:27:44;15.70;;;8.97;;
4424;SDS011;2225;53.568;13.266;2023-11-21T06:30:12;20.70;;;10.77;;
4424;SDS011;2225;53.568;13.266;2023-11-21T06:32:41;17.20;;;9.30;;
4424;SDS011;2225;53.568;13.266;2023-11-21T06:35:12;18.07;;;9.63;;
4424;SDS011;2225;53.568;13.266;2023-11-21T06:37:39;20.57;;;10.17;;
4424;SDS011;2225;53.568;13.266;2023-11-21T06:40:06;16.70;;;8.93;;
4424;SDS011;2225;53.568;13.266;2023-11-21T06:42:36;18.00;;;10.30;;
4424;SDS011;2225;53.568;13.266;2023-11-21T06:45:04;17.57;;;9.23;;
4424;SDS011;2225;53.568;13.266;2023-11-21T06:47:32;18.27;;;9.40;;
4424;SDS011;2225;53.568;13.266;2023-11-21T06:49:59;14.93;;;8.50;;
4424;SDS011;2225;53.568;13.266;2023-11-21T06:52:27;21.30;;;8.53;;
4424;SDS011;2225;53.568;13.266;2023-11-21T06:54:54;16.20;;;9.40;;
4424;SDS011;2225;53.568;13.266;2023-11-21T06:57:22;15.20;;;8.90;;
4424;SDS011;2225;53.568;13.266;2023-11-21T06:59:50;16.90;;;9.30;;
4424;SDS011;2225;53.568;13.266;2023-11-21T07:02:17;13.80;;;8.67;;
4424;SDS011;2225;53.568;13.266;2023-11-21T07:04:47;15.37;;;8.03;;
4424;SDS011;2225;53.568;13.266;2023-11-21T07:07:14;12.60;;;7.00;;
4424;SDS011;2225;53.568;13.266;2023-11-21T07:09:41;13.53;;;6.20;;
4424;SDS011;2225;53.568;13.266;2023-11-21T07:12:08;14.30;;;6.67;;
4424;SDS011;2225;53.568;13.266;2023-11-21T07:14:37;14.57;;;6.40;;
4424;SDS011;2225;53.568;13.266;2023-11-21T07:17:06;13.90;;;6.87;;
4424;SDS011;2225;53.568;13.266;2023-11-21T07:19:33;9.57;;;5.67;;
4424;SDS011;2225;53.568;13.266;2023-11-21T07:22:00;11.93;;;6.40;;
4424;SDS011;2225;53.568;13.266;2023-11-21T07:24:27;11.53;;;6.53;;
4424;SDS011;2225;53.568;13.266;2023-11-21T07:26:54;12.90;;;6.83;;
4424;SDS011;2225;53.568;13.266;2023-11-21T07:29:23;12.13;;;6.63;;
4424;SDS011;2225;53.568;13.266;2023-11-21T07:31:55;12.73;;;6.93;;
4424;SDS011;2225;53.568;13.266;2023-11-21T07:34:22;14.43;;;7.00;;
4424;SDS011;2225;53.568;13.266;2023-11-21T07:36:49;12.70;;;6.50;;
4424;SDS011;2225;53.568;13.266;2023-11-21T07:39:16;22.57;;;6.40;;
4424;SDS011;2225;53.568;13.266;2023-11-21T07:41:43;12.33;;;6.40;;
4424;SDS011;2225;53.568;13.266;2023-11-21T07:44:15;10.47;;;6.33;;
4424;SDS011;2225;53.568;13.266;2023-11-21T07:46:43;16.40;;;6.80;;
4424;SDS011;2225;53.568;13.266;2023-11-21T07:49:11;14.53;;;6.67;;
4424;SDS011;2225;53.568;13.266;2023-11-21T07:51:42;14.27;;;6.33;;
4424;SDS011;2225;53.568;13.266;2023-11-21T07:54:10;12.83;;;6.00;;
4424;SDS011;2225;53.568;13.266;2023-11-21T07:56:37;12.77;;;6.57;;
4424;SDS011;2225;53.568;13.266;2023-11-21T07:59:04;14.87;;;8.17;;
4424;SDS011;2225;53.568;13.266;2023-11-21T08:01:31;15.20;;;7.83;;
4424;SDS011;2225;53.568;13.266;2023-11-21T08:03:59;14.30;;;8.20;;
4424;SDS011;2225;53.568;13.266;2023-11-21T08:06:28;19.80;;;8.07;;
4424;SDS011;2225;53.568;13.266;2023-11-21T08:08:57;15.13;;;8.80;;
4424;SDS011;2225;53.568;13.266;2023-11-21T08:11:23;13.80;;;8.53;;
4424;SDS011;2225;53.568;13.266;2023-11-21T08:13:51;19.53;;;9.50;;
4424;SDS011;2225;53.568;13.266;2023-11-21T08:16:18;21.83;;;9.10;;
4424;SDS011;2225;53.568;13.266;2023-11-21T08:18:45;13.73;;;7.97;;
4424;SDS011;2225;53.568;13.266;2023-11-21T08:21:12;15.90;;;9.10;;
4424;SDS011;2225;53.568;13.266;2023-11-21T08:23:39;13.53;;;8.40;;
4424;SDS011;2225;53.568;13.266;2023-11-21T08:26:06;13.63;;;8.07;;
4424;SDS011;2225;53.568;13.266;2023-11-21T08:28:35;18.13;;;9.67;;
4424;SDS011;2225;53.568;13.266;2023-11-21T08:31:02;15.50;;;8.30;;
4424;SDS011;2225;53.568;13.266;2023-11-21T08:33:30;15.83;;;8.87;;
4424;SDS011;2225;53.568;13.266;2023-11-21T08:35:57;18.77;;;8.80;;
4424;SDS011;2225;53.568;13.266;2023-11-21T08:38:24;17.10;;;8.77;;
4424;SDS011;2225;53.568;13.266;2023-11-21T08:40:51;18.83;;;9.97;;
4424;SDS011;2225;53.568;13.266;2023-11-21T08:43:18;16.90;;;10.10;;
4424;SDS011;2225;53.568;13.266;2023-11-21T08:45:46;18.47;;;8.80;;
4424;SDS011;2225;53.568;13.266;2023-11-21T08:48:13;22.50;;;9.07;;
4424;SDS011;2225;53.568;13.266;2023-11-21T08:50:40;15.93;;;8.73;;
4424;SDS011;2225;53.568;13.266;2023-11-21T08:53:07;17.03;;;8.93;;
4424;SDS011;2225;53.568;13.266;2023-11-21T08:55:34;16.30;;;8.47;;
4424;SDS011;2225;53.568;13.266;2023-11-21T08:58:04;19.87;;;9.30;;
4424;SDS011;2225;53.568;13.266;2023-11-21T09:00:32;18.90;;;9.50;;
4424;SDS011;2225;53.568;13.266;2023-11-21T09:03:00;21.50;;;10.30;;
4424;SDS011;2225;53.568;13.266;2023-11-21T09:05:29;16.73;;;8.80;;
4424;SDS011;2225;53.568;13.266;2023-11-21T09:07:56;16.33;;;8.63;;
4424;SDS011;2225;53.568;13.266;2023-11-21T09:10:23;16.27;;;9.20;;
4424;SDS011;2225;53.568;13.266;2023-11-21T09:12:52;23.80;;;9.43;;
4424;SDS011;2225;53.568;13.266;2023-11-21T09:15:18;27.73;;;9.57;;
4424;SDS011;2225;53.568;13.266;2023-11-21T09:17:47;16.97;;;8.17;;
4424;SDS011;2225;53.568;13.266;2023-11-21T09:20:14;14.60;;;8.27;;
4424;SDS011;2225;53.568;13.266;2023-11-21T09:22:42;15.33;;;7.73;;
4424;SDS011;2225;53.568;13.266;2023-11-21T09:25:11;14.37;;;7.67;;
4424;SDS011;2225;53.568;13.266;2023-11-21T09:27:39;14.90;;;7.53;;
4424;SDS011;2225;53.568;13.266;2023-11-21T09:30:06;16.87;;;8.27;;
4424;SDS011;2225;53.568;13.266;2023-11-21T09:32:37;15.43;;;8.23;;
4424;SDS011;2225;53.568;13.266;2023-11-21T09:35:06;14.60;;;7.57;;
4424;SDS011;2225;53.568;13.266;2023-11-21T09:37:37;13.00;;;7.40;;
4424;SDS011;2225;53.568;13.266;2023-11-21T09:40:05;14.80;;;8.70;;
4424;SDS011;2225;53.568;13.266;2023-11-21T09:42:40;15.20;;;8.23;;
4424;SDS011;2225;53.568;13.266;2023-11-21T09:45:32;15.43;;;8.57;;
4424;SDS011;2225;53.568;13.266;2023-11-21T09:48:01;15.37;;;7.73;;
4424;SDS011;2225;53.568;13.266;2023-11-21T09:50:29;14.47;;;7.67;;
4424;SDS011;2225;53.568;13.266;2023-11-21T09:55:42;11.40;;;6.93;;
4424;SDS011;2225;53.568;13.266;2023-11-21T09:58:10;14.03;;;8.13;;
4424;SDS011;2225;53.568;13.266;2023-11-21T10:00:48;13.90;;;7.93;;
4424;SDS011;2225;53.568;13.266;2023-11-21T10:03:23;13.20;;;7.17;;
4424;SDS011;2225;53.568;13.266;2023-11-21T10:05:50;12.70;;;7.30;;
4424;SDS011;2225;53.568;13.266;2023-11-21T10:08:21;16.47;;;8.00;;
4424;SDS011;2225;53.568;13.266;2023-11-21T10:10:51;15.50;;;7.63;;
4424;SDS011;2225;53.568;13.266;2023-11-21T10:13:20;15.73;;;7.60;;
4424;SDS011;2225;53.568;13.266;2023-11-21T10:15:51;15.00;;;7.40;;
4424;SDS011;2225;53.568;13.266;2023-11-21T10:18:19;13.63;;;7.40;;
4424;SDS011;2225;53.568;13.266;2023-11-21T10:20:48;14.40;;;7.33;;
4424;SDS011;2225;53.568;13.266;2023-11-21T10:23:20;30.73;;;8.40;;
4424;SDS011;2225;53.568;13.266;2023-11-21T10:25:50;13.13;;;7.43;;
4424;SDS011;2225;53.568;13.266;2023-11-21T10:28:18;13.03;;;7.07;;
4424;SDS011;2225;53.568;13.266;2023-11-21T10:30:49;12.60;;;6.33;;
4424;SDS011;2225;53.568;13.266;2023-11-21T10:33:16;11.10;;;6.40;;
4424;SDS011;2225;53.568;13.266;2023-11-21T10:35:47;13.13;;;7.10;;
4424;SDS011;2225;53.568;13.266;2023-11-21T10:38:22;11.70;;;6.10;;
4424;SDS011;2225;53.568;13.266;2023-11-21T10:40:50;13.43;;;6.90;;
4424;SDS011;2225;53.568;13.266;2023-11-21T10:43:18;12.37;;;7.00;;
4424;SDS011;2225;53.568;13.266;2023-11-21T10:45:45;12.10;;;6.70;;
4424;SDS011;2225;53.568;13.266;2023-11-21T10:48:13;12.23;;;6.00;;
4424;SDS011;2225;53.568;13.266;2023-11-21T10:50:44;13.63;;;6.60;;
4424;SDS011;2225;53.568;13.266;2023-11-21T10:53:13;11.87;;;6.30;;
4424;SDS011;2225;53.568;13.266;2023-11-21T10:55:41;12.57;;;7.37;;
4424;SDS011;2225;53.568;13.266;2023-11-21T10:58:10;12.57;;;6.00;;
4424;SDS011;2225;53.568;13.266;2023-11-21T11:00:40;12.77;;;5.60;;
4424;SDS011;2225;53.568;13.266;2023-11-21T11:03:09;11.80;;;6.30;;
4424;SDS011;2225;53.568;13.266;2023-11-21T11:05:43;16.80;;;6.13;;
4424;SDS011;2225;53.568;13.266;2023-11-21T11:08:21;17.47;;;6.97;;
4424;SDS011;2225;53.568;13.266;2023-11-21T11:10:53;12.13;;;6.00;;
4424;SDS011;2225;53.568;13.266;2023-11-21T11:13:21;11.93;;;6.27;;
4424;SDS011;2225;53.568;13.266;2023-11-21T11:15:49;11.97;;;5.80;;
4424;SDS011;2225;53.568;13.266;2023-11-21T11:18:16;18.17;;;7.70;;
4424;SDS011;2225;53.568;13.266;2023-11-21T11:20:45;12.60;;;5.90;;
4424;SDS011;2225;53.568;13.266;2023-11-21T11:23:28;12.30;;;6.17;;
4424;SDS011;2225;53.568;13.266;2023-11-21T11:26:07;16.63;;;6.07;;
4424;SDS011;2225;53.568;13.266;2023-11-21T11:29:07;10.80;;;5.60;;
4424;SDS011;2225;53.568;13.266;2023-11-21T11:35:56;10.80;;;5.27;;
4424;SDS011;2225;53.568;13.266;2023-11-21T11:38:37;10.13;;;5.53;;
4424;SDS011;2225;53.568;13.266;2023-11-21T11:41:05;10.13;;;4.10;;
4424;SDS011;2225;53.568;13.266;2023-11-21T11:43:33;10.43;;;5.00;;
4424;SDS011;2225;53.568;13.266;2023-11-21T11:46:06;12.30;;;5.00;;
4424;SDS011;2225;53.568;13.266;2023-11-21T11:48:40;11.43;;;5.30;;
4424;SDS011;2225;53.568;13.266;2023-11-21T11:51:11;8.57;;;4.47;;
4424;SDS011;2225;53.568;13.266;2023-11-21T11:53:47;8.63;;;4.47;;
4424;SDS011;2225;53.568;13.266;2023-11-21T11:58:53;8.13;;;4.23;;
4424;SDS011;2225;53.568;13.266;2023-11-21T12:01:22;8.43;;;5.17;;
4424;SDS011;2225;53.568;13.266;2023-11-21T12:06:37;10.93;;;5.13;;
4424;SDS011;2225;53.568;13.266;2023-11-21T12:09:05;12.00;;;5.77;;
4424;SDS011;2225;53.568;13.266;2023-11-21T12:11:32;11.57;;;4.93;;
4424;SDS011;2225;53.568;13.266;2023-11-21T12:13:59;12.60;;;5.37;;
4424;SDS011;2225;53.568;13.266;2023-11-21T12:16:34;12.70;;;5.70;;
4424;SDS011;2225;53.568;13.266;2023-11-21T12:19:01;9.87;;;4.90;;
4424;SDS011;2225;53.568;13.266;2023-11-21T12:21:28;13.90;;;5.33;;
4424;SDS011;2225;53.568;13.266;2023-11-21T12:23:56;10.63;;;5.23;;
4424;SDS011;2225;53.568;13.266;2023-11-21T12:26:24;12.40;;;6.00;;
4424;SDS011;2225;53.568;13.266;2023-11-21T12:28:54;9.80;;;5.37;;
4424;SDS011;2225;53.568;13.266;2023-11-21T12:31:22;12.37;;;5.47;;
4424;SDS011;2225;53.568;13.266;2023-11-21T12:33:50;9.70;;;5.40;;
4424;SDS011;2225;53.568;13.266;2023-11-21T12:36:18;12.77;;;4.83;;
4424;SDS011;2225;53.568;13.266;2023-11-21T12:38:45;11.30;;;5.73;;
4424;SDS011;2225;53.568;13.266;2023-11-21T12:41:12;10.87;;;5.30;;
4424;SDS011;2225;53.568;13.266;2023-11-21T12:43:39;8.90;;;4.60;;
4424;SDS011;2225;53.568;13.266;2023-11-21T12:46:10;12.40;;;5.37;;
4424;SDS011;2225;53.568;13.266;2023-11-21T12:48:37;9.37;;;4.90;;
4424;SDS011;2225;53.568;13.266;2023-11-21T12:51:06;9.40;;;5.17;;
4424;SDS011;2225;53.568;13.266;2023-11-21T12:53:33;8.40;;;4.40;;
4424;SDS011;2225;53.568;13.266;2023-11-21T12:56:09;11.80;;;4.57;;
4424;SDS011;2225;53.568;13.266;2023-11-21T12:58:38;9.70;;;4.20;;
4424;SDS011;2225;53.568;13.266;2023-11-21T13:01:06;7.70;;;3.47;;
4424;SDS011;2225;53.568;13.266;2023-11-21T13:03:38;8.80;;;3.83;;
4424;SDS011;2225;53.568;13.266;2023-11-21T13:06:07;10.20;;;4.57;;
4424;SDS011;2225;53.568;13.266;2023-11-21T13:08:34;10.37;;;4.33;;
4424;SDS011;2225;53.568;13.266;2023-11-21T13:11:05;9.33;;;4.00;;
4424;SDS011;2225;53.568;13.266;2023-11-21T13:13:33;8.30;;;4.33;;
4424;SDS011;2225;53.568;13.266;2023-11-21T13:16:00;10.23;;;4.37;;
4424;SDS011;2225;53.568;13.266;2023-11-21T13:18:32;10.47;;;4.70;;
4424;SDS011;2225;53.568;13.266;2023-11-21T13:21:01;21.83;;;3.93;;
4424;SDS011;2225;53.568;13.266;2023-11-21T13:23:43;9.40;;;4.47;;
4424;SDS011;2225;53.568;13.266;2023-11-21T13:26:12;8.27;;;4.13;;
4424;SDS011;2225;53.568;13.266;2023-11-21T13:28:41;18.33;;;5.00;;
4424;SDS011;2225;53.568;13.266;2023-11-21T13:31:13;9.57;;;4.30;;
4424;SDS011;2225;53.568;13.266;2023-11-21T13:33:48;7.90;;;3.83;;
4424;SDS011;2225;53.568;13.266;2023-11-21T13:36:22;6.73;;;3.40;;
4424;SDS011;2225;53.568;13.266;2023-11-21T13:38:50;12.17;;;4.33;;
4424;SDS011;2225;53.568;13.266;2023-11-21T13:41:20;7.60;;;3.70;;
4424;SDS011;2225;53.568;13.266;2023-11-21T13:43:54;12.23;;;4.77;;
4424;SDS011;2225;53.568;13.266;2023-11-21T13:46:30;6.83;;;3.60;;
4424;SDS011;2225;53.568;13.266;2023-11-21T13:49:03;9.70;;;4.50;;
4424;SDS011;2225;53.568;13.266;2023-11-21T13:51:36;8.53;;;4.63;;
4424;SDS011;2225;53.568;13.266;2023-11-21T13:54:12;9.50;;;4.57;;
4424;SDS011;2225;53.568;13.266;2023-11-21T13:56:40;8.77;;;3.77;;
4424;SDS011;2225;53.568;13.266;2023-11-21T13:59:10;7.67;;;3.33;;
4424;SDS011;2225;53.568;13.266;2023-11-21T14:01:49;9.43;;;3.93;;
4424;SDS011;2225;53.568;13.266;2023-11-21T14:04:20;7.70;;;3.87;;
4424;SDS011;2225;53.568;13.266;2023-11-21T14:07:02;8.50;;;3.50;;
4424;SDS011;2225;53.568;13.266;2023-11-21T14:09:46;9.80;;;4.40;;
4424;SDS011;2225;53.568;13.266;2023-11-21T14:12:15;6.87;;;3.00;;
4424;SDS011;2225;53.568;13.266;2023-11-21T14:14:42;7.93;;;4.00;;
4424;SDS011;2225;53.568;13.266;2023-11-21T14:17:10;8.00;;;3.40;;
4424;SDS011;2225;53.568;13.266;2023-11-21T14:19:37;7.03;;;3.30;;
4424;SDS011;2225;53.568;13.266;2023-11-21T14:22:10;12.93;;;3.40;;
4424;SDS011;2225;53.568;13.266;2023-11-21T14:24:37;7.53;;;3.33;;
4424;SDS011;2225;53.568;13.266;2023-11-21T14:27:07;8.20;;;4.00;;
4424;SDS011;2225;53.568;13.266;2023-11-21T14:29:34;7.80;;;3.90;;
4424;SDS011;2225;53.568;13.266;2023-11-21T14:32:05;9.97;;;3.60;;
4424;SDS011;2225;53.568;13.266;2023-11-21T14:34:34;9.57;;;3.70;;
4424;SDS011;2225;53.568;13.266;2023-11-21T14:37:01;6.93;;;3.30;;
4424;SDS011;2225;53.568;13.266;2023-11-21T14:39:29;8.40;;;4.27;;
4424;SDS011;2225;53.568;13.266;2023-11-21T14:41:57;8.70;;;3.63;;
4424;SDS011;2225;53.568;13.266;2023-11-21T14:44:25;10.93;;;3.40;;
4424;SDS011;2225;53.568;13.266;2023-11-21T14:46:55;7.67;;;3.47;;
4424;SDS011;2225;53.568;13.266;2023-11-21T14:49:24;7.10;;;3.40;;
4424;SDS011;2225;53.568;13.266;2023-11-21T14:51:54;7.30;;;3.80;;
4424;SDS011;2225;53.568;13.266;2023-11-21T14:54:43;8.20;;;3.40;;
4424;SDS011;2225;53.568;13.266;2023-11-21T14:57:13;7.77;;;4.00;;
4424;SDS011;2225;53.568;13.266;2023-11-21T14:59:48;7.27;;;3.50;;
4424;SDS011;2225;53.568;13.266;2023-11-21T15:02:19;7.30;;;3.50;;
4424;SDS011;2225;53.568;13.266;2023-11-21T15:04:49;8.93;;;4.00;;
4424;SDS011;2225;53.568;13.266;2023-11-21T15:07:19;8.83;;;3.50;;
4424;SDS011;2225;53.568;13.266;2023-11-21T15:09:46;7.90;;;3.60;;